Lewisberry, Pennsylvania
Current Conditions -  °F | °C
As of 7:56 AM on Saturday 01 Nov 2014 (Local Time) from KCXY Reporting Station
Overcast Overcast  
Wind Chill: 48°   Ceiling: 2500
Heat Index: 48°   Visibility: 10mi
Dew Point: 40°   Wind: 3mph
Humidity: 74%   Direction: 350°N
Pressure: 29.86"   Gusts: NA
Location:  40.14°N, 76.86°W
Report Text: KCXY 011156Z 35003KT 10SM OVC025 09/04 A2986 RMK AO2 SLP115 60000 70001 T00890044 10089 20083 53013
Loading
Personal Weather Stations






























Interactive Weather Map
Tropical Storm Tracking
New forecast layout! Learn more

10-Day Weather Forecast

Advertisements
Track Severe Weather on mobile